Wind From: 10-12-2017 19:04 Until: 11-12-2017 16:00 warning for: Wind Level: Orange info button

Power and phone distribution networks may be disrupted for relatively long periods., Roofs and chimneys can be damaged. , Tree branches may break. , Vehicles can be deported. , Traffic may be disrupted, particularly on secondary roads in forest areas. Limit your trips. , Limit your speed in highway driving, especially if you drive a vehicle or hitch sensitive to wind. , Do not go for walks in forests or along the coast., In town, be vigilant against possible falling objects., Do not work on roofs and do not touch any electrical line fallen on the ground., Store or secure sensitive objects to wind or likely to be damaged., Always install power generators outside buildings. 


Meteo18 Weather Cam more information Meteo18 Weather Cam


Thunder radar more information blitzortung!


Rain radar more information rain snow radar


Visit our other weather sites:

Template documentation
and downloads

And another site



Weather Underground History page Text

Daily Summary for August 28, 2017 Units:  Both    English   Metric
« Previous Day
Next Day »
Daily Weekly Monthly Yearly Custom
  High: Low: Average:
Temperature: 90.3 °F /  32.4 °C 70.9 °F /  21.6 °C 79.9 °F /  26.6 °C
Dew Point: 67.6 °F /  19.8 °C 61.3 °F /  16.3 °C 64.6 °F /  18.1 °C
Humidity: 79 % 42 % 61 %
Wind Speed: 10 mph /  16.1 km/h - 3.2 mph /  5.2 km/h
Wind Gust: 14 mph /  22.5 km/h - -
Wind:- - East
Pressure: 30.1 in /  1017.8 hPa 30 in /  1015.5 hPa -
Precipitation: 0 in /  0.0 mm    
Historical Graphs
 
 
Tabular Data for August 28, 2017
Time Temperature Dew Point Pressure Wind Wind Speed Wind Gust Humidity Rainfall Rate (Hourly)
00:02 74.7 °F /  23.7 °C 66.6 °F /  19.2 °C 30.1 in /  1017.8 hPa NE 3 mph /  4.8 km/h 7 mph /  11.3 km/h 76 % 0 in /  0.0 mm
00:12 74.5 °F /  23.6 °C 66.4 °F /  19.1 °C 30.1 in /  1017.8 hPa Calm   8 mph /  12.9 km/h 76 % 0 in /  0.0 mm
00:17 74.5 °F /  23.6 °C 66.4 °F /  19.1 °C 30.1 in /  1017.8 hPa NE 2 mph /  3.2 km/h 8 mph /  12.9 km/h 76 % 0 in /  0.0 mm
00:22 74.3 °F /  23.5 °C 66.2 °F /  19.0 °C 30.1 in /  1017.8 hPa North 1 mph /  1.6 km/h 8 mph /  12.9 km/h 76 % 0 in /  0.0 mm
00:32 74.1 °F /  23.4 °C 66 °F /  18.9 °C 30.1 in /  1017.8 hPa NE 1 mph /  1.6 km/h 5 mph /  8.0 km/h 76 % 0 in /  0.0 mm
00:42 73.9 °F /  23.3 °C 65.8 °F /  18.8 °C 30.1 in /  1017.8 hPa NE 1 mph /  1.6 km/h 6 mph /  9.7 km/h 76 % 0 in /  0.0 mm
00:47 73.8 °F /  23.2 °C 65.7 °F /  18.7 °C 30.1 in /  1017.8 hPa NNE 1 mph /  1.6 km/h 6 mph /  9.7 km/h 76 % 0 in /  0.0 mm
00:57 73.4 °F /  23.0 °C 65.7 °F /  18.7 °C 30.1 in /  1017.8 hPa Calm   6 mph /  9.7 km/h 77 % 0 in /  0.0 mm
01:02 73.4 °F /  23.0 °C 65.7 °F /  18.7 °C 30.1 in /  1017.8 hPa NE 2 mph /  3.2 km/h 6 mph /  9.7 km/h 77 % 0 in /  0.0 mm
01:12 73.6 °F /  23.1 °C 65.5 °F /  18.6 °C 30.1 in /  1017.8 hPa NNE 3 mph /  4.8 km/h 7 mph /  11.3 km/h 76 % 0 in /  0.0 mm
01:17 73.6 °F /  23.1 °C 65.5 °F /  18.6 °C 30.1 in /  1017.8 hPa Calm   7 mph /  11.3 km/h 76 % 0 in /  0.0 mm
01:27 73.2 °F /  22.9 °C 65.7 °F /  18.7 °C 30.1 in /  1017.8 hPa Calm   5 mph /  8.0 km/h 77 % 0 in /  0.0 mm
01:32 73.2 °F /  22.9 °C 65.7 °F /  18.7 °C 30.1 in /  1017.8 hPa Calm   5 mph /  8.0 km/h 77 % 0 in /  0.0 mm
01:37 73 °F /  22.8 °C 65.5 °F /  18.6 °C 30.1 in /  1017.8 hPa North 1 mph /  1.6 km/h 5 mph /  8.0 km/h 77 % 0 in /  0.0 mm
01:47 73 °F /  22.8 °C 65.5 °F /  18.6 °C 30.1 in /  1017.8 hPa Calm   4 mph /  6.4 km/h 77 % 0 in /  0.0 mm
01:52 73.2 °F /  22.9 °C 65.7 °F /  18.7 °C 30.1 in /  1017.8 hPa NNW 2 mph /  3.2 km/h 4 mph /  6.4 km/h 77 % 0 in /  0.0 mm
02:02 73.2 °F /  22.9 °C 65.7 °F /  18.7 °C 30.1 in /  1017.5 hPa Calm   4 mph /  6.4 km/h 77 % 0 in /  0.0 mm
02:12 72.9 °F /  22.7 °C 65.3 °F /  18.5 °C 30.1 in /  1017.5 hPa Calm   3 mph /  4.8 km/h 77 % 0 in /  0.0 mm
02:17 72.7 °F /  22.6 °C 65.5 °F /  18.6 °C 30.1 in /  1017.5 hPa Calm   3 mph /  4.8 km/h 78 % 0 in /  0.0 mm
02:22 72.5 °F /  22.5 °C 65.3 °F /  18.5 °C 30.1 in /  1017.5 hPa Calm   2 mph /  3.2 km/h 78 % 0 in /  0.0 mm
02:32 72.3 °F /  22.4 °C 65.1 °F /  18.4 °C 30.1 in /  1017.5 hPa Calm   1 mph /  1.6 km/h 78 % 0 in /  0.0 mm
02:37 72.3 °F /  22.4 °C 65.1 °F /  18.4 °C 30.1 in /  1017.5 hPa North 3 mph /  4.8 km/h 3 mph /  4.8 km/h 78 % 0 in /  0.0 mm
02:42 72.3 °F /  22.4 °C 65.1 °F /  18.4 °C 30.1 in /  1017.5 hPa Calm   2 mph /  3.2 km/h 78 % 0 in /  0.0 mm
02:47 72.3 °F /  22.4 °C 65.1 °F /  18.4 °C 30.1 in /  1017.5 hPa North 2 mph /  3.2 km/h 4 mph /  6.4 km/h 78 % 0 in /  0.0 mm
02:52 72.3 °F /  22.4 °C 65.1 °F /  18.4 °C 30.1 in /  1017.5 hPa North 4 mph /  6.4 km/h 4 mph /  6.4 km/h 78 % 0 in /  0.0 mm
02:57 72.3 °F /  22.4 °C 65.1 °F /  18.4 °C 30 in /  1017.2 hPa North 3 mph /  4.8 km/h 4 mph /  6.4 km/h 78 % 0 in /  0.0 mm
03:02 72.3 °F /  22.4 °C 65.1 °F /  18.4 °C 30.1 in /  1017.5 hPa NNE 1 mph /  1.6 km/h 4 mph /  6.4 km/h 78 % 0 in /  0.0 mm
03:12 72.3 °F /  22.4 °C 65.1 °F /  18.4 °C 30 in /  1017.2 hPa Calm   5 mph /  8.0 km/h 78 % 0 in /  0.0 mm
03:17 72.1 °F /  22.3 °C 64.9 °F /  18.3 °C 30 in /  1017.2 hPa NNW 1 mph /  1.6 km/h 5 mph /  8.0 km/h 78 % 0 in /  0.0 mm
03:22 72.3 °F /  22.4 °C 65.1 °F /  18.4 °C 30 in /  1017.2 hPa NNE 2 mph /  3.2 km/h 3 mph /  4.8 km/h 78 % 0 in /  0.0 mm
03:27 72.3 °F /  22.4 °C 65.1 °F /  18.4 °C 30 in /  1017.2 hPa North 3 mph /  4.8 km/h 4 mph /  6.4 km/h 78 % 0 in /  0.0 mm
03:32 72.3 °F /  22.4 °C 65.1 °F /  18.4 °C 30 in /  1017.2 hPa ENE 2 mph /  3.2 km/h 4 mph /  6.4 km/h 78 % 0 in /  0.0 mm
03:37 72.3 °F /  22.4 °C 65.1 °F /  18.4 °C 30 in /  1017.2 hPa North 5 mph /  8.0 km/h 9 mph /  14.5 km/h 78 % 0 in /  0.0 mm
03:42 72.3 °F /  22.4 °C 65.1 °F /  18.4 °C 30 in /  1016.8 hPa NNW 3 mph /  4.8 km/h 9 mph /  14.5 km/h 78 % 0 in /  0.0 mm
03:52 72.3 °F /  22.4 °C 65.1 °F /  18.4 °C 30 in /  1016.8 hPa NE 3 mph /  4.8 km/h 9 mph /  14.5 km/h 78 % 0 in /  0.0 mm
03:57 72.3 °F /  22.4 °C 65.1 °F /  18.4 °C 30 in /  1016.8 hPa ENE 3 mph /  4.8 km/h 6 mph /  9.7 km/h 78 % 0 in /  0.0 mm
04:02 72.3 °F /  22.4 °C 65.1 °F /  18.4 °C 30 in /  1016.8 hPa NNW 3 mph /  4.8 km/h 6 mph /  9.7 km/h 78 % 0 in /  0.0 mm
04:12 72.1 °F /  22.3 °C 64.9 °F /  18.3 °C 30 in /  1016.8 hPa North 1 mph /  1.6 km/h 6 mph /  9.7 km/h 78 % 0 in /  0.0 mm
04:17 72.1 °F /  22.3 °C 64.9 °F /  18.3 °C 30 in /  1016.8 hPa NNW 3 mph /  4.8 km/h 5 mph /  8.0 km/h 78 % 0 in /  0.0 mm
04:22 72.1 °F /  22.3 °C 64.9 °F /  18.3 °C 30 in /  1016.8 hPa North 3 mph /  4.8 km/h 6 mph /  9.7 km/h 78 % 0 in /  0.0 mm
04:32 72 °F /  22.2 °C 64.8 °F /  18.2 °C 30 in /  1016.8 hPa NNE 1 mph /  1.6 km/h 7 mph /  11.3 km/h 78 % 0 in /  0.0 mm
04:37 72 °F /  22.2 °C 64.8 °F /  18.2 °C 30 in /  1016.8 hPa NE 1 mph /  1.6 km/h 5 mph /  8.0 km/h 78 % 0 in /  0.0 mm
04:42 71.8 °F /  22.1 °C 64.6 °F /  18.1 °C 30 in /  1016.8 hPa ENE 1 mph /  1.6 km/h 4 mph /  6.4 km/h 78 % 0 in /  0.0 mm
04:47 71.8 °F /  22.1 °C 64.9 °F /  18.3 °C 30 in /  1016.8 hPa NNE 2 mph /  3.2 km/h 4 mph /  6.4 km/h 79 % 0 in /  0.0 mm
05:02 72 °F /  22.2 °C 64.8 °F /  18.2 °C 30 in /  1016.5 hPa NNW 2 mph /  3.2 km/h 5 mph /  8.0 km/h 78 % 0 in /  0.0 mm
05:12 71.6 °F /  22.0 °C 64.4 °F /  18.0 °C 30 in /  1016.5 hPa NE 1 mph /  1.6 km/h 5 mph /  8.0 km/h 78 % 0 in /  0.0 mm
05:17 71.8 °F /  22.1 °C 64.6 °F /  18.1 °C 30 in /  1016.5 hPa NNE 3 mph /  4.8 km/h 5 mph /  8.0 km/h 78 % 0 in /  0.0 mm
05:22 71.8 °F /  22.1 °C 64.6 °F /  18.1 °C 30 in /  1016.5 hPa NNE 2 mph /  3.2 km/h 7 mph /  11.3 km/h 78 % 0 in /  0.0 mm
05:27 71.8 °F /  22.1 °C 64.6 °F /  18.1 °C 30 in /  1016.5 hPa NE 3 mph /  4.8 km/h 7 mph /  11.3 km/h 78 % 0 in /  0.0 mm
05:32 71.6 °F /  22.0 °C 64.4 °F /  18.0 °C 30 in /  1016.5 hPa NE 2 mph /  3.2 km/h 7 mph /  11.3 km/h 78 % 0 in /  0.0 mm
05:42 71.1 °F /  21.7 °C 64.2 °F /  17.9 °C 30 in /  1016.5 hPa Calm   3 mph /  4.8 km/h 79 % 0 in /  0.0 mm
05:47 70.9 °F /  21.6 °C 64 °F /  17.8 °C 30 in /  1016.1 hPa Calm   3 mph /  4.8 km/h 79 % 0 in /  0.0 mm
05:57 71.1 °F /  21.7 °C 63.9 °F /  17.7 °C 30 in /  1016.5 hPa NNE 1 mph /  1.6 km/h 3 mph /  4.8 km/h 78 % 0 in /  0.0 mm
06:02 71.2 °F /  21.8 °C 64 °F /  17.8 °C 30 in /  1016.5 hPa Calm   4 mph /  6.4 km/h 78 % 0 in /  0.0 mm
06:12 71.6 °F /  22.0 °C 64 °F /  17.8 °C 30 in /  1016.5 hPa NNE 1 mph /  1.6 km/h 3 mph /  4.8 km/h 77 % 0 in /  0.0 mm
06:17 71.8 °F /  22.1 °C 63.9 °F /  17.7 °C 30 in /  1016.5 hPa NNE 3 mph /  4.8 km/h 3 mph /  4.8 km/h 76 % 0 in /  0.0 mm
06:27 71.8 °F /  22.1 °C 63.9 °F /  17.7 °C 30 in /  1016.5 hPa NNE 1 mph /  1.6 km/h 3 mph /  4.8 km/h 76 % 0 in /  0.0 mm
06:32 71.8 °F /  22.1 °C 63.9 °F /  17.7 °C 30 in /  1016.5 hPa North 2 mph /  3.2 km/h 3 mph /  4.8 km/h 76 % 0 in /  0.0 mm
06:42 71.8 °F /  22.1 °C 64.2 °F /  17.9 °C 30 in /  1016.5 hPa NNW 1 mph /  1.6 km/h 4 mph /  6.4 km/h 77 % 0 in /  0.0 mm
06:47 71.6 °F /  22.0 °C 64 °F /  17.8 °C 30 in /  1016.5 hPa Calm   4 mph /  6.4 km/h 77 % 0 in /  0.0 mm
06:52 71.4 °F /  21.9 °C 63.9 °F /  17.7 °C 30 in /  1016.5 hPa Calm   4 mph /  6.4 km/h 77 % 0 in /  0.0 mm
07:02 71.4 °F /  21.9 °C 63.9 °F /  17.7 °C 30 in /  1016.5 hPa Calm   4 mph /  6.4 km/h 77 % 0 in /  0.0 mm
07:12 71.4 °F /  21.9 °C 63.9 °F /  17.7 °C 30 in /  1016.8 hPa Calm   2 mph /  3.2 km/h 77 % 0 in /  0.0 mm
07:17 71.6 °F /  22.0 °C 63.7 °F /  17.6 °C 30 in /  1016.8 hPa Calm   2 mph /  3.2 km/h 76 % 0 in /  0.0 mm
07:22 71.4 °F /  21.9 °C 63.9 °F /  17.7 °C 30 in /  1016.8 hPa Calm     77 % 0 in /  0.0 mm
07:32 71.6 °F /  22.0 °C 64 °F /  17.8 °C 30 in /  1016.8 hPa NNE 2 mph /  3.2 km/h 4 mph /  6.4 km/h 77 % 0 in /  0.0 mm
07:42 71.4 °F /  21.9 °C 64.2 °F /  17.9 °C 30 in /  1016.8 hPa North 2 mph /  3.2 km/h 4 mph /  6.4 km/h 78 % 0 in /  0.0 mm
07:52 71.8 °F /  22.1 °C 64.2 °F /  17.9 °C 30 in /  1016.8 hPa Calm   5 mph /  8.0 km/h 77 % 0 in /  0.0 mm
07:57 71.8 °F /  22.1 °C 64.2 °F /  17.9 °C 30 in /  1016.8 hPa NNE 2 mph /  3.2 km/h 5 mph /  8.0 km/h 77 % 0 in /  0.0 mm
08:02 72 °F /  22.2 °C 64.4 °F /  18.0 °C 30 in /  1016.8 hPa Calm   6 mph /  9.7 km/h 77 % 0 in /  0.0 mm
08:12 72.5 °F /  22.5 °C 64 °F /  17.8 °C 30 in /  1017.2 hPa Calm   5 mph /  8.0 km/h 75 % 0 in /  0.0 mm
08:17 72.7 °F /  22.6 °C 64.2 °F /  17.9 °C 30 in /  1017.2 hPa Calm   5 mph /  8.0 km/h 75 % 0 in /  0.0 mm
08:27 73.2 °F /  22.9 °C 64 °F /  17.8 °C 30 in /  1017.2 hPa NNE 1 mph /  1.6 km/h 5 mph /  8.0 km/h 73 % 0 in /  0.0 mm
08:32 73.2 °F /  22.9 °C 64 °F /  17.8 °C 30 in /  1017.2 hPa Calm   3 mph /  4.8 km/h 73 % 0 in /  0.0 mm
08:37 73.6 °F /  23.1 °C 65.1 °F /  18.4 °C 30.1 in /  1017.5 hPa Calm   3 mph /  4.8 km/h 75 % 0 in /  0.0 mm
08:42 73.6 °F /  23.1 °C 65.1 °F /  18.4 °C 30.1 in /  1017.5 hPa ENE 1 mph /  1.6 km/h 2 mph /  3.2 km/h 75 % 0 in /  0.0 mm
08:47 73.6 °F /  23.1 °C 64.8 °F /  18.2 °C 30.1 in /  1017.5 hPa ENE 2 mph /  3.2 km/h 2 mph /  3.2 km/h 74 % 0 in /  0.0 mm
08:57 73.2 °F /  22.9 °C 64.8 °F /  18.2 °C 30.1 in /  1017.5 hPa North 4 mph /  6.4 km/h 4 mph /  6.4 km/h 75 % 0 in /  0.0 mm
09:02 73.8 °F /  23.2 °C 65.3 °F /  18.5 °C 30.1 in /  1017.5 hPa NNE 4 mph /  6.4 km/h 7 mph /  11.3 km/h 75 % 0 in /  0.0 mm
09:12 74.1 °F /  23.4 °C 64.9 °F /  18.3 °C 30.1 in /  1017.5 hPa NNE 3 mph /  4.8 km/h 8 mph /  12.9 km/h 73 % 0 in /  0.0 mm
09:17 74.5 °F /  23.6 °C 65.3 °F /  18.5 °C 30.1 in /  1017.5 hPa ENE 4 mph /  6.4 km/h 8 mph /  12.9 km/h 73 % 0 in /  0.0 mm
09:22 74.7 °F /  23.7 °C 65.5 °F /  18.6 °C 30.1 in /  1017.5 hPa NE 3 mph /  4.8 km/h 8 mph /  12.9 km/h 73 % 0 in /  0.0 mm
09:27 75.4 °F /  24.1 °C 65.3 °F /  18.5 °C 30.1 in /  1017.8 hPa North 3 mph /  4.8 km/h 8 mph /  12.9 km/h 71 % 0 in /  0.0 mm
09:32 75.7 °F /  24.3 °C 65.7 °F /  18.7 °C 30.1 in /  1017.8 hPa NNW 1 mph /  1.6 km/h 7 mph /  11.3 km/h 71 % 0 in /  0.0 mm
09:37 76.3 °F /  24.6 °C 65.3 °F /  18.5 °C 30.1 in /  1017.8 hPa NE 3 mph /  4.8 km/h 7 mph /  11.3 km/h 69 % 0 in /  0.0 mm
09:42 76.6 °F /  24.8 °C 65.3 °F /  18.5 °C 30.1 in /  1017.8 hPa NE 1 mph /  1.6 km/h 6 mph /  9.7 km/h 68 % 0 in /  0.0 mm
09:52 77.2 °F /  25.1 °C 65.8 °F /  18.8 °C 30.1 in /  1017.8 hPa Calm   6 mph /  9.7 km/h 68 % 0 in /  0.0 mm
09:57 77.5 °F /  25.3 °C 65.7 °F /  18.7 °C 30.1 in /  1017.8 hPa NE 3 mph /  4.8 km/h 6 mph /  9.7 km/h 67 % 0 in /  0.0 mm
10:02 77.4 °F /  25.2 °C 65.5 °F /  18.6 °C 30.1 in /  1017.8 hPa NNE 2 mph /  3.2 km/h 6 mph /  9.7 km/h 67 % 0 in /  0.0 mm
10:12 77.5 °F /  25.3 °C 65.7 °F /  18.7 °C 30.1 in /  1017.8 hPa East 2 mph /  3.2 km/h 4 mph /  6.4 km/h 67 % 0 in /  0.0 mm
10:17 77.9 °F /  25.5 °C 66 °F /  18.9 °C 30.1 in /  1017.8 hPa Calm   4 mph /  6.4 km/h 67 % 0 in /  0.0 mm
10:27 79 °F /  26.1 °C 66.2 °F /  19.0 °C 30.1 in /  1017.8 hPa Calm   5 mph /  8.0 km/h 65 % 0 in /  0.0 mm
10:32 79.9 °F /  26.6 °C 66.6 °F /  19.2 °C 30.1 in /  1017.8 hPa Calm   4 mph /  6.4 km/h 64 % 0 in /  0.0 mm
10:42 79.7 °F /  26.5 °C 66 °F /  18.9 °C 30.1 in /  1017.8 hPa East 2 mph /  3.2 km/h 7 mph /  11.3 km/h 63 % 0 in /  0.0 mm
10:47 80.1 °F /  26.7 °C 66.4 °F /  19.1 °C 30.1 in /  1017.8 hPa ENE 4 mph /  6.4 km/h 7 mph /  11.3 km/h 63 % 0 in /  0.0 mm
10:52 80.1 °F /  26.7 °C 65.8 °F /  18.8 °C 30.1 in /  1017.8 hPa East 3 mph /  4.8 km/h 7 mph /  11.3 km/h 62 % 0 in /  0.0 mm
10:57 80.4 °F /  26.9 °C 66.7 °F /  19.3 °C 30.1 in /  1017.8 hPa North 3 mph /  4.8 km/h 7 mph /  11.3 km/h 63 % 0 in /  0.0 mm
11:02 80.2 °F /  26.8 °C 66.6 °F /  19.2 °C 30.1 in /  1017.8 hPa North 5 mph /  8.0 km/h 7 mph /  11.3 km/h 63 % 0 in /  0.0 mm
11:12 81 °F /  27.2 °C 66.7 °F /  19.3 °C 30.1 in /  1017.8 hPa ENE 2 mph /  3.2 km/h 9 mph /  14.5 km/h 62 % 0 in /  0.0 mm
11:17 81.1 °F /  27.3 °C 66.9 °F /  19.4 °C 30.1 in /  1017.8 hPa NE 5 mph /  8.0 km/h 9 mph /  14.5 km/h 62 % 0 in /  0.0 mm
11:22 81.3 °F /  27.4 °C 66.6 °F /  19.2 °C 30.1 in /  1017.8 hPa NE 5 mph /  8.0 km/h 8 mph /  12.9 km/h 61 % 0 in /  0.0 mm
11:27 81.7 °F /  27.6 °C 67.5 °F /  19.7 °C 30.1 in /  1017.8 hPa ENE 4 mph /  6.4 km/h 8 mph /  12.9 km/h 62 % 0 in /  0.0 mm
11:32 82.4 °F /  28.0 °C 67.6 °F /  19.8 °C 30.1 in /  1017.8 hPa NE 1 mph /  1.6 km/h 7 mph /  11.3 km/h 61 % 0 in /  0.0 mm
11:42 82.9 °F /  28.3 °C 65.7 °F /  18.7 °C 30.1 in /  1017.8 hPa NE 2 mph /  3.2 km/h 9 mph /  14.5 km/h 56 % 0 in /  0.0 mm
11:47 83.1 °F /  28.4 °C 65.8 °F /  18.8 °C 30.1 in /  1017.8 hPa ENE 4 mph /  6.4 km/h 9 mph /  14.5 km/h 56 % 0 in /  0.0 mm
11:52 83.3 °F /  28.5 °C 66 °F /  18.9 °C 30.1 in /  1017.8 hPa NNE 4 mph /  6.4 km/h 9 mph /  14.5 km/h 56 % 0 in /  0.0 mm
11:57 83.8 °F /  28.8 °C 66 °F /  18.9 °C 30.1 in /  1017.8 hPa NNE 5 mph /  8.0 km/h 9 mph /  14.5 km/h 55 % 0 in /  0.0 mm
12:02 84.4 °F /  29.1 °C 66.4 °F /  19.1 °C 30.1 in /  1017.8 hPa ENE 8 mph /  12.9 km/h 10 mph /  16.1 km/h 55 % 0 in /  0.0 mm
12:12 84.6 °F /  29.2 °C 66 °F /  18.9 °C 30.1 in /  1017.8 hPa NE 6 mph /  9.7 km/h 10 mph /  16.1 km/h 54 % 0 in /  0.0 mm
12:17 84.4 °F /  29.1 °C 65.8 °F /  18.8 °C 30.1 in /  1017.8 hPa NNE 7 mph /  11.3 km/h 10 mph /  16.1 km/h 54 % 0 in /  0.0 mm
12:22 84.4 °F /  29.1 °C 66.4 °F /  19.1 °C 30.1 in /  1017.8 hPa East 3 mph /  4.8 km/h 12 mph /  19.3 km/h 55 % 0 in /  0.0 mm
12:32 84.6 °F /  29.2 °C 65.5 °F /  18.6 °C 30.1 in /  1017.8 hPa ENE 5 mph /  8.0 km/h 12 mph /  19.3 km/h 53 % 0 in /  0.0 mm
12:37 84.6 °F /  29.2 °C 66 °F /  18.9 °C 30.1 in /  1017.5 hPa NE 2 mph /  3.2 km/h 8 mph /  12.9 km/h 54 % 0 in /  0.0 mm
12:42 85.5 °F /  29.7 °C 66.4 °F /  19.1 °C 30.1 in /  1017.5 hPa NE 4 mph /  6.4 km/h 8 mph /  12.9 km/h 53 % 0 in /  0.0 mm
12:47 86 °F /  30.0 °C 66.9 °F /  19.4 °C 30.1 in /  1017.5 hPa NNW 5 mph /  8.0 km/h 8 mph /  12.9 km/h 53 % 0 in /  0.0 mm
12:52 86.4 °F /  30.2 °C 66.7 °F /  19.3 °C 30.1 in /  1017.5 hPa North 6 mph /  9.7 km/h 10 mph /  16.1 km/h 52 % 0 in /  0.0 mm
13:02 86.5 °F /  30.3 °C 66.2 °F /  19.0 °C 30.1 in /  1017.5 hPa NNE 8 mph /  12.9 km/h 10 mph /  16.1 km/h 51 % 0 in /  0.0 mm
13:12 87.3 °F /  30.7 °C 66.4 °F /  19.1 °C 30.1 in /  1017.5 hPa NNE 7 mph /  11.3 km/h 12 mph /  19.3 km/h 50 % 0 in /  0.0 mm
13:17 87.3 °F /  30.7 °C 65.1 °F /  18.4 °C 30.1 in /  1017.5 hPa NNE 6 mph /  9.7 km/h 12 mph /  19.3 km/h 48 % 0 in /  0.0 mm
13:22 86.9 °F /  30.5 °C 66 °F /  18.9 °C 30 in /  1017.2 hPa East 2 mph /  3.2 km/h 11 mph /  17.7 km/h 50 % 0 in /  0.0 mm
13:32 87.1 °F /  30.6 °C 66.2 °F /  19.0 °C 30 in /  1017.2 hPa ENE 5 mph /  8.0 km/h 10 mph /  16.1 km/h 50 % 0 in /  0.0 mm
13:42 86.7 °F /  30.4 °C 65.8 °F /  18.8 °C 30 in /  1017.2 hPa NE 7 mph /  11.3 km/h 9 mph /  14.5 km/h 50 % 0 in /  0.0 mm
13:52 86.9 °F /  30.5 °C 66 °F /  18.9 °C 30 in /  1017.2 hPa ENE 5 mph /  8.0 km/h 7 mph /  11.3 km/h 50 % 0 in /  0.0 mm
13:57 87.1 °F /  30.6 °C 65.7 °F /  18.7 °C 30 in /  1017.2 hPa ENE 5 mph /  8.0 km/h 7 mph /  11.3 km/h 49 % 0 in /  0.0 mm
14:02 87.1 °F /  30.6 °C 65.7 °F /  18.7 °C 30 in /  1017.2 hPa NE 7 mph /  11.3 km/h 8 mph /  12.9 km/h 49 % 0 in /  0.0 mm
14:12 87.1 °F /  30.6 °C 64.4 °F /  18.0 °C 30 in /  1017.2 hPa NE 6 mph /  9.7 km/h 8 mph /  12.9 km/h 47 % 0 in /  0.0 mm
14:17 87.3 °F /  30.7 °C 65.1 °F /  18.4 °C 30 in /  1017.2 hPa North 4 mph /  6.4 km/h 8 mph /  12.9 km/h 48 % 0 in /  0.0 mm
14:22 87.3 °F /  30.7 °C 64.6 °F /  18.1 °C 30 in /  1017.2 hPa NNE 7 mph /  11.3 km/h 8 mph /  12.9 km/h 47 % 0 in /  0.0 mm
14:27 87.1 °F /  30.6 °C 64.9 °F /  18.3 °C 30 in /  1016.8 hPa NE 2 mph /  3.2 km/h 8 mph /  12.9 km/h 48 % 0 in /  0.0 mm
14:32 87.4 °F /  30.8 °C 64.8 °F /  18.2 °C 30 in /  1016.8 hPa NE 7 mph /  11.3 km/h 9 mph /  14.5 km/h 47 % 0 in /  0.0 mm
14:37 87.6 °F /  30.9 °C 64.2 °F /  17.9 °C 30 in /  1016.8 hPa NNE 7 mph /  11.3 km/h 9 mph /  14.5 km/h 46 % 0 in /  0.0 mm
14:42 88.2 °F /  31.2 °C 64.8 °F /  18.2 °C 30 in /  1016.8 hPa NE 7 mph /  11.3 km/h 10 mph /  16.1 km/h 46 % 0 in /  0.0 mm
14:47 88.7 °F /  31.5 °C 64.6 °F /  18.1 °C 30 in /  1016.8 hPa NNE 9 mph /  14.5 km/h 10 mph /  16.1 km/h 45 % 0 in /  0.0 mm
14:52 89.1 °F /  31.7 °C 64.2 °F /  17.9 °C 30 in /  1016.8 hPa NNE 2 mph /  3.2 km/h 10 mph /  16.1 km/h 44 % 0 in /  0.0 mm
15:02 89.4 °F /  31.9 °C 63.3 °F /  17.4 °C 30 in /  1016.8 hPa NNE 4 mph /  6.4 km/h 10 mph /  16.1 km/h 42 % 0 in /  0.0 mm
15:07 89.4 °F /  31.9 °C 64.6 °F /  18.1 °C 30 in /  1016.5 hPa NNE 5 mph /  8.0 km/h 10 mph /  16.1 km/h 44 % 0 in /  0.0 mm
15:12 89.8 °F /  32.1 °C 64.2 °F /  17.9 °C 30 in /  1016.5 hPa East 4 mph /  6.4 km/h 10 mph /  16.1 km/h 43 % 0 in /  0.0 mm
15:17 89.6 °F /  32.0 °C 64.2 °F /  17.9 °C 30 in /  1016.5 hPa NNE 7 mph /  11.3 km/h 10 mph /  16.1 km/h 43 % 0 in /  0.0 mm
15:22 89.6 °F /  32.0 °C 66 °F /  18.9 °C 30 in /  1016.5 hPa NNE 5 mph /  8.0 km/h 13 mph /  20.9 km/h 46 % 0 in /  0.0 mm
15:32 89.8 °F /  32.1 °C 64.9 °F /  18.3 °C 30 in /  1016.1 hPa NNW 5 mph /  8.0 km/h 11 mph /  17.7 km/h 44 % 0 in /  0.0 mm
15:37 90.1 °F /  32.3 °C 65.8 °F /  18.8 °C 30 in /  1016.1 hPa NE 10 mph /  16.1 km/h 11 mph /  17.7 km/h 45 % 0 in /  0.0 mm
15:42 90.3 °F /  32.4 °C 64 °F /  17.8 °C 30 in /  1016.1 hPa NNE 4 mph /  6.4 km/h 11 mph /  17.7 km/h 42 % 0 in /  0.0 mm
15:47 89.4 °F /  31.9 °C 65.3 °F /  18.5 °C 30 in /  1016.1 hPa NE 6 mph /  9.7 km/h 13 mph /  20.9 km/h 45 % 0 in /  0.0 mm
15:52 89.4 °F /  31.9 °C 66.6 °F /  19.2 °C 30 in /  1016.1 hPa ENE 5 mph /  8.0 km/h 13 mph /  20.9 km/h 47 % 0 in /  0.0 mm
16:02 89.4 °F /  31.9 °C 66.6 °F /  19.2 °C 30 in /  1016.1 hPa NE 5 mph /  8.0 km/h 13 mph /  20.9 km/h 47 % 0 in /  0.0 mm
16:12 89.4 °F /  31.9 °C 65.3 °F /  18.5 °C 30 in /  1016.1 hPa NE 9 mph /  14.5 km/h 12 mph /  19.3 km/h 45 % 0 in /  0.0 mm
16:17 89.2 °F /  31.8 °C 65.7 °F /  18.7 °C 30 in /  1016.1 hPa North 8 mph /  12.9 km/h 14 mph /  22.5 km/h 46 % 0 in /  0.0 mm
16:27 89.8 °F /  32.1 °C 64.9 °F /  18.3 °C 30 in /  1016.1 hPa NNE 2 mph /  3.2 km/h 12 mph /  19.3 km/h 44 % 0 in /  0.0 mm
16:32 89.6 °F /  32.0 °C 66 °F /  18.9 °C 30 in /  1015.8 hPa ENE 9 mph /  14.5 km/h 12 mph /  19.3 km/h 46 % 0 in /  0.0 mm
16:37 89.8 °F /  32.1 °C 65.7 °F /  18.7 °C 30 in /  1015.8 hPa WNW 5 mph /  8.0 km/h 13 mph /  20.9 km/h 45 % 0 in /  0.0 mm
16:47 89.1 °F /  31.7 °C 65.7 °F /  18.7 °C 30 in /  1015.8 hPa NNE 4 mph /  6.4 km/h 13 mph /  20.9 km/h 46 % 0 in /  0.0 mm
16:52 89.1 °F /  31.7 °C 65.7 °F /  18.7 °C 30 in /  1015.8 hPa NNW 4 mph /  6.4 km/h 13 mph /  20.9 km/h 46 % 0 in /  0.0 mm
16:57 89.2 °F /  31.8 °C 65.7 °F /  18.7 °C 30 in /  1015.8 hPa ENE 7 mph /  11.3 km/h 11 mph /  17.7 km/h 46 % 0 in /  0.0 mm
17:02 89.2 °F /  31.8 °C 65.7 °F /  18.7 °C 30 in /  1015.8 hPa NE 8 mph /  12.9 km/h 11 mph /  17.7 km/h 46 % 0 in /  0.0 mm
17:17 90 °F /  32.2 °C 65.8 °F /  18.8 °C 30 in /  1015.8 hPa NNE 6 mph /  9.7 km/h 14 mph /  22.5 km/h 45 % 0 in /  0.0 mm
17:22 90.1 °F /  32.3 °C 65.8 °F /  18.8 °C 30 in /  1015.5 hPa NE 8 mph /  12.9 km/h 14 mph /  22.5 km/h 45 % 0 in /  0.0 mm
17:27 90 °F /  32.2 °C 65.1 °F /  18.4 °C 30 in /  1015.5 hPa NW 1 mph /  1.6 km/h 14 mph /  22.5 km/h 44 % 0 in /  0.0 mm
17:32 89.8 °F /  32.1 °C 65.7 °F /  18.7 °C 30 in /  1015.5 hPa NE 6 mph /  9.7 km/h 14 mph /  22.5 km/h 45 % 0 in /  0.0 mm
17:37 90 °F /  32.2 °C 65.1 °F /  18.4 °C 30 in /  1015.5 hPa North 5 mph /  8.0 km/h 13 mph /  20.9 km/h 44 % 0 in /  0.0 mm
17:42 90.1 °F /  32.3 °C 65.3 °F /  18.5 °C 30 in /  1015.5 hPa NNW 4 mph /  6.4 km/h 13 mph /  20.9 km/h 44 % 0 in /  0.0 mm
17:47 90 °F /  32.2 °C 65.1 °F /  18.4 °C 30 in /  1015.5 hPa NE 8 mph /  12.9 km/h 13 mph /  20.9 km/h 44 % 0 in /  0.0 mm
17:52 90 °F /  32.2 °C 65.1 °F /  18.4 °C 30 in /  1015.5 hPa North 6 mph /  9.7 km/h 12 mph /  19.3 km/h 44 % 0 in /  0.0 mm
17:57 90 °F /  32.2 °C 65.1 °F /  18.4 °C 30 in /  1015.5 hPa NNW 5 mph /  8.0 km/h 12 mph /  19.3 km/h 44 % 0 in /  0.0 mm
18:02 89.4 °F /  31.9 °C 64.6 °F /  18.1 °C 30 in /  1015.5 hPa NNE 6 mph /  9.7 km/h 12 mph /  19.3 km/h 44 % 0 in /  0.0 mm
18:12 89.4 °F /  31.9 °C 64.6 °F /  18.1 °C 30 in /  1015.5 hPa NE 7 mph /  11.3 km/h 11 mph /  17.7 km/h 44 % 0 in /  0.0 mm
18:17 89.2 °F /  31.8 °C 65.1 °F /  18.4 °C 30 in /  1015.5 hPa ENE 4 mph /  6.4 km/h 12 mph /  19.3 km/h 45 % 0 in /  0.0 mm
18:22 89.2 °F /  31.8 °C 65.1 °F /  18.4 °C 30 in /  1015.5 hPa ENE 4 mph /  6.4 km/h 12 mph /  19.3 km/h 45 % 0 in /  0.0 mm
18:27 89.2 °F /  31.8 °C 64.4 °F /  18.0 °C 30 in /  1015.5 hPa NE 6 mph /  9.7 km/h 11 mph /  17.7 km/h 44 % 0 in /  0.0 mm
18:32 89.1 °F /  31.7 °C 64.2 °F /  17.9 °C 30 in /  1015.5 hPa NNW 5 mph /  8.0 km/h 11 mph /  17.7 km/h 44 % 0 in /  0.0 mm
18:42 88.9 °F /  31.6 °C 63.5 °F /  17.5 °C 30 in /  1015.5 hPa NNE 6 mph /  9.7 km/h 11 mph /  17.7 km/h 43 % 0 in /  0.0 mm
18:52 88.7 °F /  31.5 °C 62.6 °F /  17.0 °C 30 in /  1015.5 hPa NNE 7 mph /  11.3 km/h 11 mph /  17.7 km/h 42 % 0 in /  0.0 mm
18:57 88.3 °F /  31.3 °C 63 °F /  17.2 °C 30 in /  1015.5 hPa North 6 mph /  9.7 km/h 11 mph /  17.7 km/h 43 % 0 in /  0.0 mm
19:02 88 °F /  31.1 °C 62.6 °F /  17.0 °C 30 in /  1015.5 hPa NE 3 mph /  4.8 km/h 9 mph /  14.5 km/h 43 % 0 in /  0.0 mm
19:12 87.6 °F /  30.9 °C 63 °F /  17.2 °C 30 in /  1015.5 hPa NE 3 mph /  4.8 km/h 12 mph /  19.3 km/h 44 % 0 in /  0.0 mm
19:17 87.4 °F /  30.8 °C 62.8 °F /  17.1 °C 30 in /  1015.5 hPa NNW 2 mph /  3.2 km/h 12 mph /  19.3 km/h 44 % 0 in /  0.0 mm
19:22 87.3 °F /  30.7 °C 62.6 °F /  17.0 °C 30 in /  1015.5 hPa NNE 2 mph /  3.2 km/h 10 mph /  16.1 km/h 44 % 0 in /  0.0 mm
19:32 86.9 °F /  30.5 °C 63.7 °F /  17.6 °C 30 in /  1015.5 hPa NE 6 mph /  9.7 km/h 10 mph /  16.1 km/h 46 % 0 in /  0.0 mm
19:37 86.5 °F /  30.3 °C 63.3 °F /  17.4 °C 30 in /  1015.5 hPa NE 2 mph /  3.2 km/h 10 mph /  16.1 km/h 46 % 0 in /  0.0 mm
19:42 86.4 °F /  30.2 °C 63.7 °F /  17.6 °C 30 in /  1015.5 hPa NNE 5 mph /  8.0 km/h 10 mph /  16.1 km/h 47 % 0 in /  0.0 mm
19:47 86 °F /  30.0 °C 64 °F /  17.8 °C 30 in /  1015.5 hPa NNE 5 mph /  8.0 km/h 10 mph /  16.1 km/h 48 % 0 in /  0.0 mm
19:52 85.6 °F /  29.8 °C 63.7 °F /  17.6 °C 30 in /  1015.5 hPa NE 4 mph /  6.4 km/h 10 mph /  16.1 km/h 48 % 0 in /  0.0 mm
19:57 85.3 °F /  29.6 °C 64 °F /  17.8 °C 30 in /  1015.5 hPa NNE 2 mph /  3.2 km/h 10 mph /  16.1 km/h 49 % 0 in /  0.0 mm
20:02 84.7 °F /  29.3 °C 63.5 °F /  17.5 °C 30 in /  1015.5 hPa North 8 mph /  12.9 km/h 10 mph /  16.1 km/h 49 % 0 in /  0.0 mm
20:12 84 °F /  28.9 °C 62.8 °F /  17.1 °C 30 in /  1015.5 hPa NE 1 mph /  1.6 km/h 11 mph /  17.7 km/h 49 % 0 in /  0.0 mm
20:17 83.7 °F /  28.7 °C 63 °F /  17.2 °C 30 in /  1015.5 hPa ENE 1 mph /  1.6 km/h 11 mph /  17.7 km/h 50 % 0 in /  0.0 mm
20:22 83.5 °F /  28.6 °C 63 °F /  17.2 °C 30 in /  1015.5 hPa NNE 5 mph /  8.0 km/h 11 mph /  17.7 km/h 50 % 0 in /  0.0 mm
20:32 82.8 °F /  28.2 °C 62.8 °F /  17.1 °C 30 in /  1015.8 hPa NNE 4 mph /  6.4 km/h 12 mph /  19.3 km/h 51 % 0 in /  0.0 mm
20:37 82.6 °F /  28.1 °C 62.6 °F /  17.0 °C 30 in /  1015.8 hPa NNE 3 mph /  4.8 km/h 12 mph /  19.3 km/h 51 % 0 in /  0.0 mm
20:42 82.2 °F /  27.9 °C 62.2 °F /  16.8 °C 30 in /  1015.8 hPa NE 4 mph /  6.4 km/h 9 mph /  14.5 km/h 51 % 0 in /  0.0 mm
20:47 82 °F /  27.8 °C 62.1 °F /  16.7 °C 30 in /  1015.8 hPa ENE 6 mph /  9.7 km/h 9 mph /  14.5 km/h 51 % 0 in /  0.0 mm
20:52 81.9 °F /  27.7 °C 61.9 °F /  16.6 °C 30 in /  1015.8 hPa NNE 3 mph /  4.8 km/h 10 mph /  16.1 km/h 51 % 0 in /  0.0 mm
21:12 81 °F /  27.2 °C 61.7 °F /  16.5 °C 30 in /  1015.8 hPa NE 4 mph /  6.4 km/h 9 mph /  14.5 km/h 52 % 0 in /  0.0 mm
21:17 80.8 °F /  27.1 °C 61.5 °F /  16.4 °C 30 in /  1015.8 hPa NNE 6 mph /  9.7 km/h 10 mph /  16.1 km/h 52 % 0 in /  0.0 mm
21:22 80.8 °F /  27.1 °C 62.1 °F /  16.7 °C 30 in /  1015.8 hPa NNE 6 mph /  9.7 km/h 10 mph /  16.1 km/h 53 % 0 in /  0.0 mm
21:27 80.6 °F /  27.0 °C 61.9 °F /  16.6 °C 30 in /  1015.8 hPa ENE 3 mph /  4.8 km/h 10 mph /  16.1 km/h 53 % 0 in /  0.0 mm
21:32 80.4 °F /  26.9 °C 62.2 °F /  16.8 °C 30 in /  1015.8 hPa ENE 2 mph /  3.2 km/h 11 mph /  17.7 km/h 54 % 0 in /  0.0 mm
21:37 80.4 °F /  26.9 °C 62.2 °F /  16.8 °C 30 in /  1016.1 hPa NNE 7 mph /  11.3 km/h 11 mph /  17.7 km/h 54 % 0 in /  0.0 mm
21:42 80.2 °F /  26.8 °C 62.1 °F /  16.7 °C 30 in /  1016.1 hPa NNE 6 mph /  9.7 km/h 11 mph /  17.7 km/h 54 % 0 in /  0.0 mm
21:47 80.1 °F /  26.7 °C 62.4 °F /  16.9 °C 30 in /  1016.1 hPa NE 3 mph /  4.8 km/h 11 mph /  17.7 km/h 55 % 0 in /  0.0 mm
21:57 79.7 °F /  26.5 °C 62.1 °F /  16.7 °C 30 in /  1016.1 hPa NE 4 mph /  6.4 km/h 11 mph /  17.7 km/h 55 % 0 in /  0.0 mm
22:02 79.3 °F /  26.3 °C 62.2 °F /  16.8 °C 30 in /  1016.1 hPa ENE 2 mph /  3.2 km/h 11 mph /  17.7 km/h 56 % 0 in /  0.0 mm
22:12 79 °F /  26.1 °C 62.4 °F /  16.9 °C 30 in /  1016.1 hPa NNE 3 mph /  4.8 km/h 11 mph /  17.7 km/h 57 % 0 in /  0.0 mm
22:17 78.6 °F /  25.9 °C 62.1 °F /  16.7 °C 30 in /  1016.1 hPa NNE 6 mph /  9.7 km/h 10 mph /  16.1 km/h 57 % 0 in /  0.0 mm
22:22 78.6 °F /  25.9 °C 62.1 °F /  16.7 °C 30 in /  1016.1 hPa NNW 4 mph /  6.4 km/h 10 mph /  16.1 km/h 57 % 0 in /  0.0 mm
22:32 78.4 °F /  25.8 °C 61.9 °F /  16.6 °C 30 in /  1016.1 hPa NNE 5 mph /  8.0 km/h 10 mph /  16.1 km/h 57 % 0 in /  0.0 mm
22:37 78.4 °F /  25.8 °C 62.4 °F /  16.9 °C 30 in /  1016.1 hPa NNE 6 mph /  9.7 km/h 9 mph /  14.5 km/h 58 % 0 in /  0.0 mm
22:47 78.1 °F /  25.6 °C 62.1 °F /  16.7 °C 30 in /  1016.1 hPa NNE 4 mph /  6.4 km/h 9 mph /  14.5 km/h 58 % 0 in /  0.0 mm
22:52 77.7 °F /  25.4 °C 62.2 °F /  16.8 °C 30 in /  1016.1 hPa NE 3 mph /  4.8 km/h 9 mph /  14.5 km/h 59 % 0 in /  0.0 mm
22:57 77.7 °F /  25.4 °C 62.2 °F /  16.8 °C 30 in /  1016.1 hPa ENE 3 mph /  4.8 km/h 8 mph /  12.9 km/h 59 % 0 in /  0.0 mm
23:02 77.5 °F /  25.3 °C 62.1 °F /  16.7 °C 30 in /  1016.1 hPa NNE 4 mph /  6.4 km/h 7 mph /  11.3 km/h 59 % 0 in /  0.0 mm
23:12 77.2 °F /  25.1 °C 61.7 °F /  16.5 °C 30 in /  1016.1 hPa North 2 mph /  3.2 km/h 7 mph /  11.3 km/h 59 % 0 in /  0.0 mm
23:17 77 °F /  25.0 °C 62.1 °F /  16.7 °C 30 in /  1016.1 hPa North 1 mph /  1.6 km/h 7 mph /  11.3 km/h 60 % 0 in /  0.0 mm
23:22 76.6 °F /  24.8 °C 61.7 °F /  16.5 °C 30 in /  1016.5 hPa NE 4 mph /  6.4 km/h 6 mph /  9.7 km/h 60 % 0 in /  0.0 mm
23:27 76.6 °F /  24.8 °C 61.7 °F /  16.5 °C 30 in /  1016.5 hPa NE 4 mph /  6.4 km/h 6 mph /  9.7 km/h 60 % 0 in /  0.0 mm
23:32 76.6 °F /  24.8 °C 61.7 °F /  16.5 °C 30 in /  1016.1 hPa NE 2 mph /  3.2 km/h 5 mph /  8.0 km/h 60 % 0 in /  0.0 mm
23:37 76.5 °F /  24.7 °C 61.5 °F /  16.4 °C 30 in /  1016.1 hPa North 1 mph /  1.6 km/h 6 mph /  9.7 km/h 60 % 0 in /  0.0 mm
23:42 76.3 °F /  24.6 °C 61.3 °F /  16.3 °C 30 in /  1016.1 hPa NE 3 mph /  4.8 km/h 6 mph /  9.7 km/h 60 % 0 in /  0.0 mm
23:47 76.3 °F /  24.6 °C 61.9 °F /  16.6 °C 30 in /  1016.1 hPa NE 2 mph /  3.2 km/h 8 mph /  12.9 km/h 61 % 0 in /  0.0 mm
23:52 76.3 °F /  24.6 °C 61.9 °F /  16.6 °C 30 in /  1016.1 hPa NE 2 mph /  3.2 km/h 8 mph /  12.9 km/h 61 % 0 in /  0.0 mm
23:57 76.3 °F /  24.6 °C 61.9 °F /  16.6 °C 30 in /  1016.1 hPa NE 2 mph /  3.2 km/h 8 mph /  12.9 km/h 61 % 0 in /  0.0 mm
Meteo18
Compliments of Weather Underground - 4 mb

Script developed by  Jim McMurry - jmcmurry@mwt.net Adapted for the template by  Wim van der Kuil - Leuven-Template.eu

You find our weather info also at:

European Weather Network

Weather Underground

Equipment we use:

Weather-station
Davis Vue

Weather-program
Meteohub

Weather-server
Raspberry PI 2 B+

Provider
1 and 1

Davis Vue

Meteohub

Raspberry PI 2 B+

1 and 1